sensor_id;sensor_type;location;lat;lon;timestamp;pressure;altitude;pressure_sealevel;temperature;humidity
10948;BME280;5526;42.070;24.752;2023-03-26T00:00:43;98232.47;;;13.06;100.00
10948;BME280;5526;42.070;24.752;2023-03-26T00:03:13;98238.94;;;13.00;100.00
10948;BME280;5526;42.070;24.752;2023-03-26T00:05:42;98247.00;;;13.40;100.00
10948;BME280;5526;42.070;24.752;2023-03-26T00:08:09;98243.75;;;13.11;100.00
10948;BME280;5526;42.070;24.752;2023-03-26T00:10:38;98245.91;;;13.09;100.00
10948;BME280;5526;42.070;24.752;2023-03-26T00:13:06;98251.13;;;13.14;100.00
10948;BME280;5526;42.070;24.752;2023-03-26T00:15:34;98239.47;;;13.15;100.00
10948;BME280;5526;42.070;24.752;2023-03-26T00:18:03;98247.31;;;13.20;100.00
10948;BME280;5526;42.070;24.752;2023-03-26T00:20:30;98242.91;;;13.93;100.00
10948;BME280;5526;42.070;24.752;2023-03-26T00:22:58;98253.91;;;13.55;100.00
10948;BME280;5526;42.070;24.752;2023-03-26T00:25:27;98247.78;;;13.41;100.00
10948;BME280;5526;42.070;24.752;2023-03-26T00:27:54;98247.88;;;13.36;100.00
10948;BME280;5526;42.070;24.752;2023-03-26T00:30:21;98239.16;;;13.35;100.00
10948;BME280;5526;42.070;24.752;2023-03-26T00:32:49;98235.13;;;13.38;100.00
10948;BME280;5526;42.070;24.752;2023-03-26T00:35:17;98234.84;;;13.39;100.00
10948;BME280;5526;42.070;24.752;2023-03-26T00:37:45;98234.84;;;13.39;100.00
10948;BME280;5526;42.070;24.752;2023-03-26T00:40:12;98224.00;;;13.41;100.00
10948;BME280;5526;42.070;24.752;2023-03-26T00:42:39;98222.63;;;13.43;100.00
10948;BME280;5526;42.070;24.752;2023-03-26T00:45:07;98221.53;;;13.44;100.00
10948;BME280;5526;42.070;24.752;2023-03-26T00:47:34;98221.53;;;13.44;100.00
10948;BME280;5526;42.070;24.752;2023-03-26T00:50:02;98207.28;;;13.45;100.00
10948;BME280;5526;42.070;24.752;2023-03-26T00:52:31;98195.34;;;13.48;100.00
10948;BME280;5526;42.070;24.752;2023-03-26T00:54:58;98196.41;;;13.47;100.00
10948;BME280;5526;42.070;24.752;2023-03-26T00:57:25;98193.50;;;13.48;100.00
10948;BME280;5526;42.070;24.752;2023-03-26T00:59:54;98201.47;;;13.43;100.00
10948;BME280;5526;42.070;24.752;2023-03-26T01:02:22;98212.78;;;13.62;100.00
10948;BME280;5526;42.070;24.752;2023-03-26T01:04:55;98206.81;;;13.70;100.00
10948;BME280;5526;42.070;24.752;2023-03-26T01:07:24;98213.47;;;13.68;100.00
10948;BME280;5526;42.070;24.752;2023-03-26T01:09:57;98210.94;;;13.63;100.00
10948;BME280;5526;42.070;24.752;2023-03-26T01:12:26;98219.91;;;13.48;100.00
10948;BME280;5526;42.070;24.752;2023-03-26T01:14:58;98225.69;;;13.50;100.00
10948;BME280;5526;42.070;24.752;2023-03-26T01:17:27;98215.81;;;13.56;100.00
10948;BME280;5526;42.070;24.752;2023-03-26T01:20:05;98235.19;;;13.51;100.00
10948;BME280;5526;42.070;24.752;2023-03-26T01:22:38;98251.88;;;12.96;100.00
10948;BME280;5526;42.070;24.752;2023-03-26T01:25:08;98244.03;;;13.87;100.00
10948;BME280;5526;42.070;24.752;2023-03-26T01:27:38;98258.72;;;13.34;100.00
10948;BME280;5526;42.070;24.752;2023-03-26T01:30:12;98263.69;;;13.22;100.00
10948;BME280;5526;42.070;24.752;2023-03-26T01:32:49;98261.19;;;13.31;100.00
10948;BME280;5526;42.070;24.752;2023-03-26T01:35:32;98260.19;;;13.40;100.00
10948;BME280;5526;42.070;24.752;2023-03-26T01:38:07;98262.59;;;13.55;100.00
10948;BME280;5526;42.070;24.752;2023-03-26T01:40:47;98274.81;;;13.83;100.00
10948;BME280;5526;42.070;24.752;2023-03-26T01:43:27;98274.81;;;13.97;100.00
10948;BME280;5526;42.070;24.752;2023-03-26T01:46:00;98276.44;;;14.11;100.00
10948;BME280;5526;42.070;24.752;2023-03-26T01:48:34;98277.81;;;14.22;100.00
10948;BME280;5526;42.070;24.752;2023-03-26T01:51:02;98278.78;;;14.26;100.00
10948;BME280;5526;42.070;24.752;2023-03-26T01:53:30;98283.31;;;14.39;94.59
10948;BME280;5526;42.070;24.752;2023-03-26T01:56:05;98289.59;;;14.43;92.40
10948;BME280;5526;42.070;24.752;2023-03-26T01:58:42;98283.22;;;14.44;91.06
10948;BME280;5526;42.070;24.752;2023-03-26T02:01:21;98284.78;;;14.45;91.47
10948;BME280;5526;42.070;24.752;2023-03-26T02:03:58;98294.78;;;14.48;90.46
10948;BME280;5526;42.070;24.752;2023-03-26T02:06:30;98287.63;;;14.49;89.64
10948;BME280;5526;42.070;24.752;2023-03-26T02:09:04;98276.84;;;14.45;86.66
10948;BME280;5526;42.070;24.752;2023-03-26T02:11:36;98279.88;;;14.52;88.48
10948;BME280;5526;42.070;24.752;2023-03-26T02:14:05;98276.94;;;14.54;88.22
10948;BME280;5526;42.070;24.752;2023-03-26T02:16:33;98285.56;;;14.59;86.99
10948;BME280;5526;42.070;24.752;2023-03-26T02:19:00;98280.25;;;14.59;86.18
10948;BME280;5526;42.070;24.752;2023-03-26T02:21:29;98283.38;;;14.61;85.79
10948;BME280;5526;42.070;24.752;2023-03-26T02:23:58;98284.28;;;14.57;83.71
10948;BME280;5526;42.070;24.752;2023-03-26T02:26:30;98273.41;;;14.58;81.81
10948;BME280;5526;42.070;24.752;2023-03-26T02:28:59;98274.84;;;14.64;82.14
10948;BME280;5526;42.070;24.752;2023-03-26T02:31:26;98275.75;;;14.60;80.12
10948;BME280;5526;42.070;24.752;2023-03-26T02:33:54;98269.09;;;14.62;80.65
10948;BME280;5526;42.070;24.752;2023-03-26T02:36:22;98277.44;;;14.56;77.86
10948;BME280;5526;42.070;24.752;2023-03-26T02:38:52;98279.69;;;14.62;78.52
10948;BME280;5526;42.070;24.752;2023-03-26T02:41:20;98274.84;;;14.64;77.34
10948;BME280;5526;42.070;24.752;2023-03-26T02:43:47;98282.13;;;14.59;75.17
10948;BME280;5526;42.070;24.752;2023-03-26T02:46:16;98296.72;;;14.56;73.42
10948;BME280;5526;42.070;24.752;2023-03-26T02:48:43;98293.91;;;14.66;74.12
10948;BME280;5526;42.070;24.752;2023-03-26T02:51:10;98297.59;;;14.65;73.39
10948;BME280;5526;42.070;24.752;2023-03-26T02:53:37;98299.47;;;14.65;72.10
10948;BME280;5526;42.070;24.752;2023-03-26T02:56:06;98310.25;;;14.68;70.60
10948;BME280;5526;42.070;24.752;2023-03-26T02:58:33;98305.75;;;14.69;69.39
10948;BME280;5526;42.070;24.752;2023-03-26T03:01:00;98312.31;;;14.71;69.51
10948;BME280;5526;42.070;24.752;2023-03-26T03:03:29;98304.19;;;14.68;69.48
10948;BME280;5526;42.070;24.752;2023-03-26T03:05:56;98314.00;;;14.67;67.96
10948;BME280;5526;42.070;24.752;2023-03-26T03:08:24;98326.72;;;14.65;68.12
10948;BME280;5526;42.070;24.752;2023-03-26T03:10:56;98329.19;;;14.62;68.30
10948;BME280;5526;42.070;24.752;2023-03-26T03:13:24;98334.78;;;14.60;67.65
10948;BME280;5526;42.070;24.752;2023-03-26T03:15:51;98330.00;;;14.49;67.10
10948;BME280;5526;42.070;24.752;2023-03-26T03:18:18;98338.00;;;14.57;67.01
10948;BME280;5526;42.070;24.752;2023-03-26T03:20:46;98345.47;;;14.55;66.43
10948;BME280;5526;42.070;24.752;2023-03-26T03:23:14;98335.28;;;14.49;66.43
10948;BME280;5526;42.070;24.752;2023-03-26T03:25:42;98340.66;;;14.44;66.46
10948;BME280;5526;42.070;24.752;2023-03-26T03:28:09;98337.25;;;14.43;66.57
10948;BME280;5526;42.070;24.752;2023-03-26T03:30:36;98348.59;;;14.30;65.96
10948;BME280;5526;42.070;24.752;2023-03-26T03:33:04;98330.56;;;14.32;66.45
10948;BME280;5526;42.070;24.752;2023-03-26T03:35:31;98350.25;;;14.26;66.54
10948;BME280;5526;42.070;24.752;2023-03-26T03:38:01;98353.34;;;14.15;67.19
10948;BME280;5526;42.070;24.752;2023-03-26T03:40:28;98357.75;;;14.06;67.12
10948;BME280;5526;42.070;24.752;2023-03-26T03:42:55;98361.84;;;13.98;66.65
10948;BME280;5526;42.070;24.752;2023-03-26T03:45:22;98362.25;;;14.05;67.82
10948;BME280;5526;42.070;24.752;2023-03-26T03:47:49;98359.41;;;14.02;67.35
10948;BME280;5526;42.070;24.752;2023-03-26T03:50:16;98363.19;;;13.96;67.78
10948;BME280;5526;42.070;24.752;2023-03-26T03:52:43;98369.88;;;13.93;67.96
10948;BME280;5526;42.070;24.752;2023-03-26T03:55:12;98366.69;;;13.78;68.05
10948;BME280;5526;42.070;24.752;2023-03-26T03:57:39;98377.63;;;13.71;69.24
10948;BME280;5526;42.070;24.752;2023-03-26T04:00:07;98375.06;;;13.66;69.52
10948;BME280;5526;42.070;24.752;2023-03-26T04:02:36;98384.78;;;13.71;69.78
10948;BME280;5526;42.070;24.752;2023-03-26T04:05:04;98383.50;;;13.68;69.40
10948;BME280;5526;42.070;24.752;2023-03-26T04:07:32;98385.84;;;13.70;69.34
10948;BME280;5526;42.070;24.752;2023-03-26T04:09:59;98381.34;;;13.70;69.23
10948;BME280;5526;42.070;24.752;2023-03-26T04:12:30;98402.34;;;13.62;69.02
10948;BME280;5526;42.070;24.752;2023-03-26T04:14:57;98397.66;;;13.59;69.20
10948;BME280;5526;42.070;24.752;2023-03-26T04:17:25;98401.06;;;13.59;69.79
10948;BME280;5526;42.070;24.752;2023-03-26T04:19:54;98403.94;;;13.63;69.73
10948;BME280;5526;42.070;24.752;2023-03-26T04:22:22;98399.88;;;13.52;70.34
10948;BME280;5526;42.070;24.752;2023-03-26T04:25:01;98398.31;;;13.51;69.96
10948;BME280;5526;42.070;24.752;2023-03-26T06:07:44;98553.09;;;14.86;66.20
10948;BME280;5526;42.070;24.752;2023-03-26T06:10:11;98551.84;;;14.65;67.69
10948;BME280;5526;42.070;24.752;2023-03-26T06:12:39;98523.59;;;14.61;67.87
10948;BME280;5526;42.070;24.752;2023-03-26T06:15:08;98559.75;;;14.84;68.32
10948;BME280;5526;42.070;24.752;2023-03-26T06:17:35;98561.53;;;14.88;67.64
10948;BME280;5526;42.070;24.752;2023-03-26T06:20:03;98556.84;;;15.26;66.81
10948;BME280;5526;42.070;24.752;2023-03-26T06:22:31;98564.91;;;15.21;66.77
10948;BME280;5526;42.070;24.752;2023-03-26T06:25:00;98571.09;;;15.16;66.78
10948;BME280;5526;42.070;24.752;2023-03-26T06:27:27;98562.16;;;15.12;66.88
10948;BME280;5526;42.070;24.752;2023-03-26T06:29:55;98568.59;;;14.93;67.27
10948;BME280;5526;42.070;24.752;2023-03-26T06:32:22;98567.13;;;15.00;66.04
10948;BME280;5526;42.070;24.752;2023-03-26T06:34:50;98562.16;;;15.12;65.74
10948;BME280;5526;42.070;24.752;2023-03-26T06:37:17;98555.16;;;15.35;63.97
10948;BME280;5526;42.070;24.752;2023-03-26T06:39:44;98562.19;;;15.39;62.21
10948;BME280;5526;42.070;24.752;2023-03-26T06:42:13;98555.91;;;15.62;61.67
10948;BME280;5526;42.070;24.752;2023-03-26T06:44:40;98557.00;;;15.61;61.75
10948;BME280;5526;42.070;24.752;2023-03-26T06:47:07;98560.09;;;15.77;60.31
10948;BME280;5526;42.070;24.752;2023-03-26T06:49:35;98542.63;;;15.76;61.12
10948;BME280;5526;42.070;24.752;2023-03-26T06:52:03;98539.34;;;15.92;60.62
10948;BME280;5526;42.070;24.752;2023-03-26T06:54:30;98526.22;;;15.87;60.92
10948;BME280;5526;42.070;24.752;2023-03-26T06:56:57;98540.13;;;16.06;60.17
10948;BME280;5526;42.070;24.752;2023-03-26T06:59:26;98547.91;;;16.25;59.87
10948;BME280;5526;42.070;24.752;2023-03-26T07:01:54;98554.50;;;16.27;60.44
10948;BME280;5526;42.070;24.752;2023-03-26T07:04:21;98565.72;;;16.24;60.65
10948;BME280;5526;42.070;24.752;2023-03-26T07:06:48;98567.78;;;15.78;58.92
10948;BME280;5526;42.070;24.752;2023-03-26T07:09:16;98602.59;;;15.63;60.16
10948;BME280;5526;42.070;24.752;2023-03-26T07:11:43;98591.94;;;15.90;60.20
10948;BME280;5526;42.070;24.752;2023-03-26T07:14:11;98586.22;;;16.10;58.20
10948;BME280;5526;42.070;24.752;2023-03-26T07:16:39;98595.31;;;16.31;56.59
10948;BME280;5526;42.070;24.752;2023-03-26T07:19:07;98594.22;;;16.32;57.89
10948;BME280;5526;42.070;24.752;2023-03-26T07:21:34;98597.06;;;16.36;57.79
10948;BME280;5526;42.070;24.752;2023-03-26T07:24:02;98592.81;;;16.48;57.46
10948;BME280;5526;42.070;24.752;2023-03-26T07:26:33;98584.66;;;16.45;55.51
10948;BME280;5526;42.070;24.752;2023-03-26T07:29:08;98582.31;;;16.43;55.22
10948;BME280;5526;42.070;24.752;2023-03-26T07:31:42;98587.41;;;16.53;55.59
10948;BME280;5526;42.070;24.752;2023-03-26T07:34:21;98576.34;;;16.60;55.01
10948;BME280;5526;42.070;24.752;2023-03-26T07:36:56;98573.72;;;16.68;55.21
10948;BME280;5526;42.070;24.752;2023-03-26T07:39:34;98566.63;;;16.77;54.37
10948;BME280;5526;42.070;24.752;2023-03-26T07:42:15;98571.03;;;16.60;52.65
10948;BME280;5526;42.070;24.752;2023-03-26T07:44:49;98563.28;;;16.50;52.51
10948;BME280;5526;42.070;24.752;2023-03-26T07:47:23;98573.78;;;16.77;52.88
10948;BME280;5526;42.070;24.752;2023-03-26T07:49:54;98556.53;;;16.66;53.31
10948;BME280;5526;42.070;24.752;2023-03-26T07:52:23;98555.91;;;16.69;53.44
10948;BME280;5526;42.070;24.752;2023-03-26T07:54:51;98561.59;;;16.76;52.90
10948;BME280;5526;42.070;24.752;2023-03-26T07:57:28;98562.25;;;16.81;52.43
10948;BME280;5526;42.070;24.752;2023-03-26T08:00:03;98547.00;;;16.95;50.96
10948;BME280;5526;42.070;24.752;2023-03-26T08:05:42;98575.41;;;16.86;51.87
10948;BME280;5526;42.070;24.752;2023-03-26T08:08:18;98544.75;;;17.20;51.46
10948;BME280;5526;42.070;24.752;2023-03-26T08:10:59;98548.22;;;17.20;49.77
10948;BME280;5526;42.070;24.752;2023-03-26T08:13:38;98544.84;;;17.37;49.70
10948;BME280;5526;42.070;24.752;2023-03-26T08:16:12;98562.25;;;16.81;50.30
10948;BME280;5526;42.070;24.752;2023-03-26T08:18:46;98534.72;;;16.77;50.66
10948;BME280;5526;42.070;24.752;2023-03-26T08:21:19;98523.84;;;17.27;49.95
10948;BME280;5526;42.070;24.752;2023-03-26T08:23:59;98528.53;;;17.69;47.33
10948;BME280;5526;42.070;24.752;2023-03-26T08:26:34;98525.44;;;17.36;48.11
10948;BME280;5526;42.070;24.752;2023-03-26T08:29:15;98532.69;;;17.44;46.73
10948;BME280;5526;42.070;24.752;2023-03-26T08:31:45;98535.53;;;17.56;47.48
10948;BME280;5526;42.070;24.752;2023-03-26T08:34:14;98532.56;;;17.58;47.82
10948;BME280;5526;42.070;24.752;2023-03-26T08:36:43;98523.25;;;18.03;47.07
10948;BME280;5526;42.070;24.752;2023-03-26T08:39:10;98517.41;;;17.58;47.29
10948;BME280;5526;42.070;24.752;2023-03-26T08:45:23;98518.16;;;17.59;48.04
10948;BME280;5526;42.070;24.752;2023-03-26T08:48:36;98505.06;;;17.88;47.21
10948;BME280;5526;42.070;24.752;2023-03-26T08:51:42;98504.16;;;18.35;47.45
10948;BME280;5526;42.070;24.752;2023-03-26T08:54:38;98509.75;;;17.74;45.98
10948;BME280;5526;42.070;24.752;2023-03-26T09:00:31;98507.09;;;17.99;44.86
10948;BME280;5526;42.070;24.752;2023-03-26T09:03:19;98503.34;;;18.26;42.64
10948;BME280;5526;42.070;24.752;2023-03-26T09:06:12;98510.09;;;18.06;42.24
10948;BME280;5526;42.070;24.752;2023-03-26T09:09:09;98512.59;;;18.20;43.21
10948;BME280;5526;42.070;24.752;2023-03-26T09:15:27;98491.59;;;18.27;44.21
10948;BME280;5526;42.070;24.752;2023-03-26T09:18:31;98494.69;;;18.54;41.36
10948;BME280;5526;42.070;24.752;2023-03-26T09:21:37;98488.16;;;18.98;39.98
10948;BME280;5526;42.070;24.752;2023-03-26T09:24:34;98492.66;;;18.60;35.43
10948;BME280;5526;42.070;24.752;2023-03-26T09:27:09;98474.69;;;18.94;35.64
10948;BME280;5526;42.070;24.752;2023-03-26T09:33:13;98470.38;;;19.10;34.68
10948;BME280;5526;42.070;24.752;2023-03-26T09:35:54;98487.25;;;19.23;34.25
10948;BME280;5526;42.070;24.752;2023-03-26T09:38:41;98467.13;;;18.96;33.47
10948;BME280;5526;42.070;24.752;2023-03-26T09:41:15;98481.22;;;19.05;33.46
10948;BME280;5526;42.070;24.752;2023-03-26T09:44:04;98467.53;;;19.24;33.93
10948;BME280;5526;42.070;24.752;2023-03-26T09:46:43;98462.75;;;18.92;33.54
10948;BME280;5526;42.070;24.752;2023-03-26T09:49:26;98455.91;;;18.82;34.01
10948;BME280;5526;42.070;24.752;2023-03-26T09:52:31;98462.72;;;19.00;33.57
10948;BME280;5526;42.070;24.752;2023-03-26T09:55:31;98451.72;;;19.10;33.44
10948;BME280;5526;42.070;24.752;2023-03-26T09:58:12;98463.19;;;19.40;34.04
10948;BME280;5526;42.070;24.752;2023-03-26T10:00:47;98447.78;;;19.45;32.73
10948;BME280;5526;42.070;24.752;2023-03-26T10:03:40;98464.47;;;19.63;33.76
10948;BME280;5526;42.070;24.752;2023-03-26T10:06:34;98450.25;;;19.91;34.56
10948;BME280;5526;42.070;24.752;2023-03-26T10:09:31;98454.34;;;19.89;33.60
10948;BME280;5526;42.070;24.752;2023-03-26T10:12:28;98440.34;;;19.92;31.40
10948;BME280;5526;42.070;24.752;2023-03-26T10:15:17;98435.72;;;20.66;31.65
10948;BME280;5526;42.070;24.752;2023-03-26T10:17:58;98435.97;;;20.85;30.84
10948;BME280;5526;42.070;24.752;2023-03-26T10:20:50;98429.81;;;20.84;30.69
10948;BME280;5526;42.070;24.752;2023-03-26T10:23:37;98445.63;;;20.65;30.11
10948;BME280;5526;42.070;24.752;2023-03-26T10:26:23;98424.41;;;21.05;29.42
10948;BME280;5526;42.070;24.752;2023-03-26T10:29:07;98430.22;;;20.50;29.42
10948;BME280;5526;42.070;24.752;2023-03-26T10:31:50;98432.25;;;20.21;29.18
10948;BME280;5526;42.070;24.752;2023-03-26T10:34:43;98433.66;;;20.39;29.35
10948;BME280;5526;42.070;24.752;2023-03-26T10:37:18;98427.59;;;20.18;28.66
10948;BME280;5526;42.070;24.752;2023-03-26T10:40:04;98418.97;;;19.92;29.16
10948;BME280;5526;42.070;24.752;2023-03-26T10:42:48;98416.31;;;20.57;29.47
10948;BME280;5526;42.070;24.752;2023-03-26T10:45:29;98422.13;;;20.26;28.00
10948;BME280;5526;42.070;24.752;2023-03-26T10:48:24;98403.19;;;21.76;25.95
10948;BME280;5526;42.070;24.752;2023-03-26T10:51:04;98400.94;;;21.26;27.08
10948;BME280;5526;42.070;24.752;2023-03-26T10:53:37;98402.97;;;21.29;27.67
10948;BME280;5526;42.070;24.752;2023-03-26T10:56:16;98403.00;;;21.05;26.43
10948;BME280;5526;42.070;24.752;2023-03-26T10:58:47;98400.28;;;20.69;25.74
10948;BME280;5526;42.070;24.752;2023-03-26T11:01:22;98402.75;;;20.98;27.50
10948;BME280;5526;42.070;24.752;2023-03-26T11:03:54;98403.44;;;20.95;27.70
10948;BME280;5526;42.070;24.752;2023-03-26T11:06:35;98397.59;;;21.29;27.25
10948;BME280;5526;42.070;24.752;2023-03-26T11:09:26;98405.66;;;21.17;27.14
10948;BME280;5526;42.070;24.752;2023-03-26T11:12:02;98400.00;;;20.95;27.60
10948;BME280;5526;42.070;24.752;2023-03-26T11:14:35;98389.34;;;21.34;27.91
10948;BME280;5526;42.070;24.752;2023-03-26T11:17:13;98371.75;;;20.73;28.24
10948;BME280;5526;42.070;24.752;2023-03-26T11:19:48;98383.59;;;20.72;26.96
10948;BME280;5526;42.070;24.752;2023-03-26T11:22:26;98376.81;;;20.99;27.41
10948;BME280;5526;42.070;24.752;2023-03-26T11:25:24;98366.78;;;21.47;26.31
10948;BME280;5526;42.070;24.752;2023-03-26T11:28:02;98357.13;;;21.31;26.08
10948;BME280;5526;42.070;24.752;2023-03-26T11:30:39;98359.47;;;21.72;26.90
10948;BME280;5526;42.070;24.752;2023-03-26T11:33:15;98364.34;;;21.42;25.39
10948;BME280;5526;42.070;24.752;2023-03-26T11:35:47;98352.00;;;21.65;25.95
10948;BME280;5526;42.070;24.752;2023-03-26T11:38:20;98364.16;;;21.63;25.96
10948;BME280;5526;42.070;24.752;2023-03-26T11:40:49;98356.34;;;21.70;25.74
10948;BME280;5526;42.070;24.752;2023-03-26T11:43:24;98350.00;;;21.23;25.60
10948;BME280;5526;42.070;24.752;2023-03-26T11:45:54;98351.13;;;21.61;26.50
10948;BME280;5526;42.070;24.752;2023-03-26T11:48:24;98346.47;;;21.86;26.42
10948;BME280;5526;42.070;24.752;2023-03-26T11:50:59;98357.84;;;21.55;25.13
10948;BME280;5526;42.070;24.752;2023-03-26T11:53:31;98333.88;;;21.86;25.72
10948;BME280;5526;42.070;24.752;2023-03-26T11:56:02;98356.03;;;21.71;25.42
10948;BME280;5526;42.070;24.752;2023-03-26T11:58:33;98330.19;;;22.22;25.60
10948;BME280;5526;42.070;24.752;2023-03-26T12:01:12;98331.06;;;21.55;25.73
10948;BME280;5526;42.070;24.752;2023-03-26T12:03:40;98315.44;;;21.85;25.77
10948;BME280;5526;42.070;24.752;2023-03-26T12:06:22;98333.75;;;21.55;25.27
10948;BME280;5526;42.070;24.752;2023-03-26T12:08:50;98321.31;;;21.63;25.64
10948;BME280;5526;42.070;24.752;2023-03-26T12:11:20;98322.22;;;21.94;25.18
10948;BME280;5526;42.070;24.752;2023-03-26T12:13:51;98329.41;;;22.37;25.31
10948;BME280;5526;42.070;24.752;2023-03-26T12:16:21;98326.22;;;22.62;25.96
10948;BME280;5526;42.070;24.752;2023-03-26T12:18:58;98330.19;;;22.84;25.65
10948;BME280;5526;42.070;24.752;2023-03-26T12:21:27;98317.00;;;22.94;25.31
10948;BME280;5526;42.070;24.752;2023-03-26T12:23:57;98293.84;;;23.21;25.18
10948;BME280;5526;42.070;24.752;2023-03-26T12:26:30;98319.69;;;22.94;24.15
10948;BME280;5526;42.070;24.752;2023-03-26T12:29:06;98302.84;;;23.13;22.87
10948;BME280;5526;42.070;24.752;2023-03-26T12:31:43;98310.72;;;21.94;23.74
10948;BME280;5526;42.070;24.752;2023-03-26T12:34:17;98310.81;;;22.28;24.45
10948;BME280;5526;42.070;24.752;2023-03-26T12:36:52;98301.88;;;21.78;24.39
10948;BME280;5526;42.070;24.752;2023-03-26T12:39:34;98260.25;;;21.96;24.92
10948;BME280;5526;42.070;24.752;2023-03-26T12:42:04;98292.16;;;21.46;22.77
10948;BME280;5526;42.070;24.752;2023-03-26T12:44:42;98277.41;;;21.79;21.84
10948;BME280;5526;42.070;24.752;2023-03-26T12:47:16;98287.66;;;22.05;23.06
10948;BME280;5526;42.070;24.752;2023-03-26T12:49:46;98278.50;;;22.21;22.67
10948;BME280;5526;42.070;24.752;2023-03-26T12:52:37;98272.16;;;22.45;22.03
10948;BME280;5526;42.070;24.752;2023-03-26T12:55:20;98274.19;;;22.82;22.52
10948;BME280;5526;42.070;24.752;2023-03-26T12:57:53;98250.63;;;22.91;22.91
10948;BME280;5526;42.070;24.752;2023-03-26T13:00:39;98259.53;;;22.30;22.12
10948;BME280;5526;42.070;24.752;2023-03-26T13:03:30;98254.38;;;22.21;22.71
10948;BME280;5526;42.070;24.752;2023-03-26T13:06:16;98255.97;;;22.57;22.01
10948;BME280;5526;42.070;24.752;2023-03-26T13:11:54;98245.97;;;22.07;22.25
10948;BME280;5526;42.070;24.752;2023-03-26T13:17:21;98237.69;;;21.97;22.94
10948;BME280;5526;42.070;24.752;2023-03-26T13:19:57;98244.22;;;22.15;22.43
10948;BME280;5526;42.070;24.752;2023-03-26T13:22:32;98235.25;;;22.23;22.36
10948;BME280;5526;42.070;24.752;2023-03-26T13:25:12;98223.66;;;22.34;22.63
10948;BME280;5526;42.070;24.752;2023-03-26T13:27:52;98221.16;;;22.10;22.71
10948;BME280;5526;42.070;24.752;2023-03-26T13:30:26;98213.41;;;22.55;22.71
10948;BME280;5526;42.070;24.752;2023-03-26T13:33:10;98217.59;;;22.37;22.16
10948;BME280;5526;42.070;24.752;2023-03-26T13:35:48;98216.16;;;21.50;22.57
10948;BME280;5526;42.070;24.752;2023-03-26T13:38:28;98211.22;;;21.80;22.50
10948;BME280;5526;42.070;24.752;2023-03-26T13:41:03;98215.47;;;21.81;22.77
10948;BME280;5526;42.070;24.752;2023-03-26T13:43:46;98219.00;;;22.16;22.59
10948;BME280;5526;42.070;24.752;2023-03-26T13:46:26;98207.63;;;22.38;22.28
10948;BME280;5526;42.070;24.752;2023-03-26T13:48:58;98213.28;;;22.48;22.61
10948;BME280;5526;42.070;24.752;2023-03-26T13:51:29;98212.56;;;22.51;22.55
10948;BME280;5526;42.070;24.752;2023-03-26T13:54:05;98206.41;;;22.85;22.54
10948;BME280;5526;42.070;24.752;2023-03-26T13:56:39;98208.25;;;23.00;22.68
10948;BME280;5526;42.070;24.752;2023-03-26T13:59:13;98219.03;;;22.66;22.77
10948;BME280;5526;42.070;24.752;2023-03-26T14:01:46;98215.44;;;22.27;22.52
10948;BME280;5526;42.070;24.752;2023-03-26T14:04:19;98215.75;;;22.57;22.05
10948;BME280;5526;42.070;24.752;2023-03-26T14:06:51;98213.41;;;22.55;22.25
10948;BME280;5526;42.070;24.752;2023-03-26T14:09:25;98210.59;;;22.33;22.18
10948;BME280;5526;42.070;24.752;2023-03-26T14:12:31;98208.97;;;21.97;22.22
10948;BME280;5526;42.070;24.752;2023-03-26T14:15:08;98207.56;;;22.34;22.35
10948;BME280;5526;42.070;24.752;2023-03-26T14:17:40;98216.53;;;22.57;22.87
10948;BME280;5526;42.070;24.752;2023-03-26T14:20:38;98215.75;;;22.57;22.17
10948;BME280;5526;42.070;24.752;2023-03-26T14:26:14;98210.03;;;22.58;22.65
10948;BME280;5526;42.070;24.752;2023-03-26T14:32:11;98207.13;;;22.48;23.00
10948;BME280;5526;42.070;24.752;2023-03-26T14:34:54;98204.72;;;22.27;21.53
10948;BME280;5526;42.070;24.752;2023-03-26T14:40:30;98202.22;;;22.03;21.52
10948;BME280;5526;42.070;24.752;2023-03-26T14:43:35;98193.94;;;21.93;22.46
10948;BME280;5526;42.070;24.752;2023-03-26T14:46:29;98196.59;;;22.24;21.36
10948;BME280;5526;42.070;24.752;2023-03-26T14:49:35;98203.00;;;21.88;21.60
10948;BME280;5526;42.070;24.752;2023-03-26T14:52:12;98184.06;;;21.81;22.21
10948;BME280;5526;42.070;24.752;2023-03-26T14:54:47;98194.63;;;21.90;21.04
10948;BME280;5526;42.070;24.752;2023-03-26T15:00:40;98182.34;;;21.73;21.04
10948;BME280;5526;42.070;24.752;2023-03-26T15:10:16;98171.16;;;21.56;22.61
10948;BME280;5526;42.070;24.752;2023-03-26T15:13:02;98168.31;;;21.64;22.51
10948;BME280;5526;42.070;24.752;2023-03-26T15:16:07;98173.34;;;21.81;22.29
10948;BME280;5526;42.070;24.752;2023-03-26T15:28:29;98170.56;;;21.47;23.15
10948;BME280;5526;42.070;24.752;2023-03-26T15:31:10;98167.97;;;21.07;23.84
10948;BME280;5526;42.070;24.752;2023-03-26T15:37:21;98162.81;;;21.14;23.63
10948;BME280;5526;42.070;24.752;2023-03-26T15:40:19;98170.94;;;21.18;23.34
10948;BME280;5526;42.070;24.752;2023-03-26T15:42:57;98165.47;;;21.14;24.01
10948;BME280;5526;42.070;24.752;2023-03-26T15:45:34;98170.50;;;21.16;24.25
10948;BME280;5526;42.070;24.752;2023-03-26T15:48:14;98168.31;;;21.06;24.79
10948;BME280;5526;42.070;24.752;2023-03-26T15:50:51;98163.44;;;20.96;24.62
10948;BME280;5526;42.070;24.752;2023-03-26T15:53:33;98154.44;;;20.88;24.90
10948;BME280;5526;42.070;24.752;2023-03-26T15:56:12;98156.69;;;20.74;25.44
10948;BME280;5526;42.070;24.752;2023-03-26T15:58:49;98171.19;;;20.73;25.61
10948;BME280;5526;42.070;24.752;2023-03-26T16:01:28;98175.47;;;20.62;25.61
10948;BME280;5526;42.070;24.752;2023-03-26T16:04:07;98174.25;;;20.59;25.90
10948;BME280;5526;42.070;24.752;2023-03-26T16:06:47;98167.81;;;20.48;25.98
10948;BME280;5526;42.070;24.752;2023-03-26T16:09:28;98178.72;;;20.43;26.20
10948;BME280;5526;42.070;24.752;2023-03-26T16:12:26;98181.97;;;20.25;26.42
10948;BME280;5526;42.070;24.752;2023-03-26T16:15:26;98182.16;;;20.08;26.94